createdAt,value
2022-12-05T00:04:23.999Z,16.30
2022-12-05T00:14:28.309Z,17.47
2022-12-05T00:24:31.358Z,16.13
2022-12-05T00:34:36.193Z,16.83
2022-12-05T00:44:39.720Z,17.20
2022-12-05T00:54:44.614Z,17.03
2022-12-05T01:04:47.768Z,16.37
2022-12-05T01:14:52.158Z,15.93
2022-12-05T01:24:55.205Z,16.43
2022-12-05T01:34:59.726Z,14.93
2022-12-05T01:45:09.288Z,14.27
2022-12-05T01:55:17.928Z,11.27
2022-12-05T02:05:24.287Z,11.90
2022-12-05T02:15:43.067Z,12.70
2022-12-05T02:26:16.783Z,12.30
2022-12-05T02:36:27.009Z,10.07
2022-12-05T02:46:33.484Z,10.47
2022-12-05T02:56:39.500Z,8.90
2022-12-05T03:06:46.811Z,9.87
2022-12-05T03:16:54.113Z,9.93
2022-12-05T03:27:08.497Z,9.53
2022-12-05T03:37:19.473Z,10.07
2022-12-05T03:47:27.870Z,8.80
2022-12-05T03:57:36.884Z,9.10
2022-12-05T04:07:41.844Z,8.67
2022-12-05T04:17:53.790Z,8.50
2022-12-05T04:28:06.911Z,8.97
2022-12-05T04:38:14.929Z,8.53
2022-12-05T04:48:19.358Z,8.83
2022-12-05T04:58:25.559Z,8.97
2022-12-05T05:08:30.370Z,9.30
2022-12-05T05:18:34.960Z,8.10
2022-12-05T05:28:38.103Z,9.03
2022-12-05T05:38:44.103Z,9.10
2022-12-05T05:48:47.506Z,8.73
2022-12-05T05:58:56.765Z,10.17
2022-12-05T06:08:59.888Z,7.37
2022-12-05T06:19:04.382Z,10.03
2022-12-05T06:29:07.327Z,8.50
2022-12-05T06:39:11.419Z,8.40
2022-12-05T06:49:14.517Z,8.33
2022-12-05T06:59:18.906Z,9.20
2022-12-05T07:09:44.840Z,8.60
2022-12-05T07:19:50.526Z,8.17
2022-12-05T07:29:54.051Z,9.67
2022-12-05T07:39:58.803Z,9.23
2022-12-05T07:50:02.078Z,10.73
2022-12-05T08:00:08.448Z,10.60
2022-12-05T08:10:15.948Z,9.27
2022-12-05T08:20:20.295Z,10.33
2022-12-05T08:30:23.079Z,9.50
2022-12-05T08:40:27.491Z,9.20
2022-12-05T08:50:30.537Z,9.53
2022-12-05T09:00:34.990Z,9.67
2022-12-05T09:10:38.960Z,12.57
2022-12-05T09:20:43.281Z,11.53
2022-12-05T09:30:46.206Z,12.17
2022-12-05T09:40:58.848Z,12.33
2022-12-05T09:51:04.412Z,12.73
2022-12-05T10:01:22.744Z,12.40
2022-12-05T10:11:35.567Z,12.27
2022-12-05T10:21:48.658Z,15.23
2022-12-05T10:31:58.887Z,14.13
2022-12-05T10:42:04.057Z,11.60
2022-12-05T10:52:07.546Z,8.07
2022-12-05T11:02:23.272Z,9.53
2022-12-05T11:12:30.180Z,9.67
2022-12-05T11:22:36.620Z,9.03
2022-12-05T11:32:40.806Z,10.90
2022-12-05T11:43:03.019Z,12.37
2022-12-05T11:53:22.547Z,12.90
2022-12-05T12:03:51.647Z,13.43
2022-12-05T12:14:02.529Z,12.10
2022-12-05T12:24:18.763Z,12.00
2022-12-05T12:34:46.008Z,13.37
2022-12-05T12:45:18.698Z,13.30
2022-12-05T12:55:26.065Z,13.20
2022-12-05T13:05:35.972Z,12.10
2022-12-05T13:15:41.984Z,12.55
2022-12-05T13:25:48.572Z,13.13
2022-12-05T13:36:17.038Z,12.93
2022-12-05T13:46:28.091Z,14.47
2022-12-05T13:56:50.582Z,13.37
2022-12-05T14:06:59.598Z,13.00
2022-12-05T14:17:04.489Z,14.43
2022-12-05T14:27:17.965Z,14.23
2022-12-05T14:37:29.097Z,15.37
2022-12-05T14:47:35.542Z,17.20
2022-12-05T14:57:48.426Z,16.13
2022-12-05T15:07:55.112Z,16.57
2022-12-05T15:18:05.111Z,17.10
2022-12-05T15:28:20.699Z,16.50
2022-12-05T15:38:28.550Z,17.77
2022-12-05T15:48:32.786Z,16.83
2022-12-05T15:58:40.916Z,17.27
2022-12-05T16:08:49.511Z,18.27
2022-12-05T16:18:56.466Z,19.60
2022-12-05T16:29:02.246Z,19.57
2022-12-05T16:39:19.162Z,21.90
2022-12-05T16:49:40.057Z,20.20
2022-12-05T16:59:49.685Z,22.00
2022-12-05T17:09:54.271Z,21.40
2022-12-05T17:19:57.271Z,20.77
2022-12-05T17:30:01.698Z,19.27
2022-12-05T18:04:10.804Z,16.90
2022-12-05T18:14:14.103Z,18.67
2022-12-05T18:24:18.538Z,16.87
2022-12-05T18:34:21.534Z,16.73
2022-12-05T18:44:25.593Z,16.90
2022-12-05T18:54:28.561Z,14.50
2022-12-05T19:04:32.851Z,15.57
2022-12-05T19:14:35.799Z,14.27
2022-12-05T19:24:40.444Z,16.10
2022-12-05T19:34:43.911Z,15.13
2022-12-05T19:44:49.699Z,15.80
2022-12-05T19:54:52.833Z,16.40
2022-12-05T20:04:56.925Z,15.53
2022-12-05T20:14:59.942Z,16.53
2022-12-05T20:25:04.611Z,17.87
2022-12-05T20:35:07.967Z,18.13
2022-12-05T20:45:12.796Z,16.57
2022-12-05T20:55:16.081Z,17.40
2022-12-05T21:05:20.493Z,16.37
2022-12-05T21:15:23.351Z,15.23
2022-12-05T21:25:27.826Z,15.33
2022-12-05T21:35:30.896Z,14.33
2022-12-05T21:45:43.359Z,14.03
2022-12-05T21:55:48.150Z,13.87
2022-12-05T22:06:00.023Z,14.10
2022-12-05T22:16:04.673Z,15.10
2022-12-05T22:26:11.102Z,14.73
2022-12-05T22:36:16.523Z,16.93
2022-12-05T22:46:22.521Z,17.07
2022-12-05T22:56:27.559Z,18.57
2022-12-05T23:06:33.486Z,17.40
2022-12-05T23:16:36.824Z,17.23
2022-12-05T23:26:43.312Z,17.57
2022-12-05T23:36:46.324Z,15.87
2022-12-05T23:46:50.967Z,16.23
2022-12-05T23:56:55.113Z,16.17
